Time;durP1;ratioP1;P1;durP2;ratioP2;P2;SDS_P1;SDS_P2;PMS_P1;PMS_P2;Temp;Humidity;BMP_temperature;BMP_pressure;BME280_temperature;BME280_humidity;BME280_pressure;Samples;Min_cycle;Max_cycle;Signal;HPM_P1;HPM_P2
2023/08/01 06:35:23;;;;;;;6.60;3.85;;;22.60;63.80;;;;;;6114821;23;92693;-90
2023/08/01 06:37:49;;;;;;;7.45;3.58;;;22.60;63.80;;;;;;6102835;22;92063;-84
2023/08/01 06:40:14;;;;;;;10.57;4.53;;;22.60;63.50;;;;;;6114882;22;92619;-89
2023/08/01 06:42:41;;;;;;;14.00;5.50;;;22.60;63.50;;;;;;6119252;23;94614;-92
2023/08/01 06:45:07;;;;;;;13.25;4.47;;;22.60;63.80;;;;;;6119068;23;98499;-91
2023/08/01 06:47:33;;;;;;;12.30;4.70;;;22.50;63.90;;;;;;6130360;22;91443;-93
2023/08/01 06:49:59;;;;;;;10.85;5.22;;;22.60;63.80;;;;;;6075196;23;92039;-90
2023/08/01 06:52:25;;;;;;;8.88;4.45;;;22.60;64.20;;;;;;6118421;23;92740;-91
2023/08/01 06:54:50;;;;;;;8.65;4.22;;;22.60;64.30;;;;;;6118268;23;95665;-90
2023/08/01 06:57:16;;;;;;;12.18;4.80;;;22.60;64.40;;;;;;6119873;23;92329;-92
2023/08/01 06:59:42;;;;;;;13.07;5.15;;;22.50;64.70;;;;;;6117202;22;91333;-85
2023/08/01 07:02:08;;;;;;;10.68;4.47;;;22.60;64.80;;;;;;6117171;22;93469;-89
2023/08/01 07:04:34;;;;;;;13.57;5.68;;;22.60;65.10;;;;;;6117344;23;92564;-91
2023/08/01 07:07:00;;;;;;;15.25;5.47;;;22.60;65.60;;;;;;6113043;23;92817;-89
2023/08/01 07:09:25;;;;;;;9.60;5.10;;;22.60;65.90;;;;;;6115576;23;92836;-90
2023/08/01 07:11:51;;;;;;;10.18;5.32;;;22.60;65.90;;;;;;6087847;23;95123;-90
2023/08/01 07:14:17;;;;;;;19.35;6.15;;;22.60;66.10;;;;;;6117796;23;92710;-93
2023/08/01 07:16:42;;;;;;;26.50;7.40;;;22.60;66.40;;;;;;6128854;23;92017;-94
2023/08/01 07:19:08;;;;;;;38.40;10.85;;;22.60;66.30;;;;;;6121015;23;92563;-94
2023/08/01 07:21:34;;;;;;;32.63;10.25;;;22.60;65.90;;;;;;6096387;23;93810;-95
2023/08/01 07:23:59;;;;;;;32.53;10.23;;;22.60;66.00;;;;;;6122603;23;91444;-94
2023/08/01 07:26:25;;;;;;;29.00;9.55;;;22.60;66.00;;;;;;6120324;22;92157;-94
2023/08/01 07:28:51;;;;;;;28.42;10.35;;;22.70;65.90;;;;;;6098460;23;93097;-94
2023/08/01 07:31:16;;;;;;;43.30;10.65;;;22.60;65.80;;;;;;6121597;22;92879;-93
2023/08/01 07:33:42;;;;;;;25.70;10.75;;;22.60;65.80;;;;;;6122962;23;93119;-94
2023/08/01 07:36:08;;;;;;;29.50;10.20;;;22.60;65.60;;;;;;6124913;23;92341;-91
2023/08/01 07:38:33;;;;;;;28.65;9.65;;;22.60;65.60;;;;;;6096572;23;92215;-95
2023/08/01 07:41:07;;;;;;;35.05;11.45;;;22.60;65.50;;;;;;6120981;23;92549;-94
2023/08/01 07:43:32;;;;;;;32.63;10.95;;;22.60;65.50;;;;;;6120006;23;92557;-94
2023/08/01 07:45:59;;;;;;;29.55;11.00;;;22.60;65.50;;;;;;6120942;23;92583;-93
2023/08/01 07:48:25;;;;;;;28.42;8.95;;;22.60;65.60;;;;;;6096444;23;91729;-94
2023/08/01 07:50:51;;;;;;;32.30;10.73;;;22.60;65.60;;;;;;6121689;22;94531;-92
2023/08/01 07:53:16;;;;;;;26.40;10.38;;;22.60;65.60;;;;;;6095689;23;95556;-94
2023/08/01 07:55:42;;;;;;;22.85;9.25;;;22.60;65.10;;;;;;6097048;23;93157;-92
2023/08/01 07:58:08;;;;;;;23.08;9.15;;;22.60;65.40;;;;;;6125729;23;92367;-94
2023/08/01 08:00:36;;;;;;;19.80;8.02;;;22.60;65.30;;;;;;6075332;23;95133;-94
2023/08/01 08:03:02;;;;;;;26.40;9.07;;;22.60;65.50;;;;;;6097770;23;94533;-94
2023/08/01 08:05:28;;;;;;;20.13;8.50;;;22.60;65.30;;;;;;6096863;23;92514;-94
2023/08/01 08:07:54;;;;;;;17.63;8.15;;;22.60;65.30;;;;;;6124437;23;92308;-94
2023/08/01 08:10:21;;;;;;;18.52;8.43;;;22.60;65.30;;;;;;6127554;23;92795;-93
2023/08/01 08:12:46;;;;;;;17.60;6.78;;;22.60;65.30;;;;;;6135793;23;92344;-93
2023/08/01 08:15:13;;;;;;;16.10;6.97;;;22.60;65.20;;;;;;6120872;23;92678;-90
2023/08/01 08:17:39;;;;;;;19.13;7.82;;;22.60;65.10;;;;;;6114691;22;92292;-90
2023/08/01 08:20:06;;;;;;;19.08;8.38;;;22.60;65.40;;;;;;6116315;22;93156;-90
2023/08/01 08:22:31;;;;;;;14.40;7.60;;;22.50;65.20;;;;;;6117416;23;92568;-93
2023/08/01 08:24:57;;;;;;;16.02;7.57;;;22.50;65.40;;;;;;6120888;23;92381;-93
2023/08/01 08:27:23;;;;;;;13.85;6.65;;;22.60;65.50;;;;;;6094437;23;92588;-92
2023/08/01 08:29:50;;;;;;;12.23;6.30;;;22.60;65.80;;;;;;6080252;22;95162;-90
2023/08/01 08:32:15;;;;;;;10.93;6.55;;;22.60;65.70;;;;;;6094044;23;95256;-92
2023/08/01 08:34:41;;;;;;;15.50;6.80;;;22.60;66.10;;;;;;6095713;23;91991;-90
2023/08/01 08:37:07;;;;;;;14.10;6.93;;;22.60;66.20;;;;;;6093587;23;91760;-92
2023/08/01 08:39:32;;;;;;;14.13;6.78;;;22.60;66.40;;;;;;6120353;23;93354;-91
2023/08/01 08:41:59;;;;;;;12.55;6.63;;;22.60;66.00;;;;;;6093642;23;94929;-88
2023/08/01 08:44:25;;;;;;;14.73;6.63;;;22.70;66.10;;;;;;6119482;23;93190;-93
2023/08/01 08:46:55;;;;;;;12.60;6.45;;;22.70;66.10;;;;;;6118602;22;92507;-92
2023/08/01 08:49:21;;;;;;;16.33;6.78;;;22.70;66.20;;;;;;6114453;22;95713;-90
2023/08/01 08:51:48;;;;;;;13.70;6.78;;;22.80;66.50;;;;;;6090360;22;95202;-91
2023/08/01 08:54:15;;;;;;;16.70;7.68;;;22.70;66.80;;;;;;6092551;23;92609;-91
2023/08/01 08:56:42;;;;;;;17.50;6.78;;;22.70;67.10;;;;;;6092302;23;92502;-90
2023/08/01 08:59:10;;;;;;;17.33;6.57;;;22.60;67.50;;;;;;6092151;23;95337;-90
2023/08/01 09:01:39;;;;;;;18.42;6.93;;;22.60;67.90;;;;;;6091517;23;95721;-91
2023/08/01 09:04:06;;;;;;;15.82;7.00;;;22.60;68.10;;;;;;6118451;23;92368;-92
2023/08/01 09:06:44;;;;;;;14.93;7.47;;;22.70;68.10;;;;;;6118720;23;92379;-89
2023/08/01 09:09:12;;;;;;;16.23;7.43;;;22.70;68.00;;;;;;6117462;23;98304;-92
2023/08/01 09:11:48;;;;;;;12.63;6.38;;;22.80;68.60;;;;;;6117818;23;93823;-91
2023/08/01 09:14:15;;;;;;;13.90;7.45;;;22.80;67.50;;;;;;6119069;23;92049;-90
2023/08/01 09:16:42;;;;;;;10.45;5.90;;;22.90;67.10;;;;;;6118948;23;96606;-93
2023/08/01 09:19:08;;;;;;;12.93;6.63;;;23.00;67.00;;;;;;6116339;22;95058;-93
2023/08/01 09:21:37;;;;;;;11.55;5.63;;;23.10;66.70;;;;;;6118921;22;93286;-92
2023/08/01 09:24:13;;;;;;;9.60;5.80;;;23.20;66.50;;;;;;6114941;23;92465;-91
2023/08/01 09:26:39;;;;;;;15.13;6.45;;;23.20;66.20;;;;;;6096798;23;91187;-91
2023/08/01 09:29:06;;;;;;;10.38;6.22;;;23.20;66.20;;;;;;6066436;23;95338;-90
2023/08/01 09:31:34;;;;;;;12.52;6.40;;;23.20;66.00;;;;;;6117301;22;92991;-91
2023/08/01 09:34:02;;;;;;;9.85;5.70;;;23.20;65.80;;;;;;6089715;22;93074;-94
2023/08/01 09:36:27;;;;;;;11.20;6.05;;;23.20;64.40;;;;;;6118473;23;92297;-93
2023/08/01 09:38:59;;;;;;;11.30;6.28;;;23.20;65.10;;;;;;6116760;23;93088;-93
2023/08/01 09:41:25;;;;;;;13.05;6.80;;;23.10;65.70;;;;;;6116725;23;93252;-91
2023/08/01 09:43:51;;;;;;;11.88;5.82;;;23.10;65.50;;;;;;6118016;23;92628;-92
2023/08/01 09:46:16;;;;;;;14.35;6.22;;;23.00;65.50;;;;;;6117304;22;92362;-92
2023/08/01 09:48:43;;;;;;;11.02;5.78;;;23.00;65.40;;;;;;6116352;23;92969;-95
2023/08/01 09:51:17;;;;;;;9.40;4.78;;;23.00;65.30;;;;;;6119862;22;92775;-92
2023/08/01 09:54:01;;;;;;;8.75;5.30;;;23.10;65.00;;;;;;6115237;23;92339;-91
2023/08/01 09:56:27;;;;;;;13.55;5.45;;;23.10;65.80;;;;;;6112777;23;92396;-89
2023/08/01 09:58:55;;;;;;;11.38;5.93;;;23.10;64.90;;;;;;6113865;23;94502;-91
2023/08/01 10:01:23;;;;;;;12.88;7.40;;;23.10;65.10;;;;;;6114029;22;95292;-91
2023/08/01 10:03:51;;;;;;;16.33;8.27;;;23.00;65.20;;;;;;6112287;23;92612;-89
2023/08/01 10:06:31;;;;;;;12.73;7.65;;;23.00;65.20;;;;;;6113662;23;92246;-93
2023/08/01 10:08:57;;;;;;;11.38;6.43;;;23.00;65.20;;;;;;6113097;23;93377;-91
2023/08/01 10:11:23;;;;;;;15.48;6.00;;;23.00;65.10;;;;;;6109567;23;92411;-89
2023/08/01 10:13:50;;;;;;;10.40;6.03;;;23.00;64.70;;;;;;6082670;23;93258;-89
2023/08/01 10:16:16;;;;;;;10.88;6.25;;;23.10;64.60;;;;;;6110561;23;92949;-90
2023/08/01 10:18:42;;;;;;;9.13;5.95;;;23.20;64.40;;;;;;6107104;23;95675;-91
2023/08/01 10:21:18;;;;;;;10.52;6.00;;;23.20;64.70;;;;;;6110653;22;92985;-90
2023/08/01 10:23:46;;;;;;;15.02;6.43;;;23.20;64.40;;;;;;6086351;23;93499;-90
2023/08/01 10:26:13;;;;;;;10.20;5.00;;;23.20;64.30;;;;;;6115145;23;92642;-89
2023/08/01 10:28:41;;;;;;;10.93;6.03;;;23.20;64.60;;;;;;6112579;23;92874;-86
2023/08/01 10:31:12;;;;;;;10.15;5.40;;;23.10;64.80;;;;;;6111375;23;92498;-89
2023/08/01 10:33:47;;;;;;;13.65;5.57;;;23.10;65.10;;;;;;6088675;23;92906;-90
2023/08/01 10:36:19;;;;;;;10.77;6.57;;;23.10;65.10;;;;;;6087313;23;93460;-90
2023/08/01 10:38:52;;;;;;;9.80;5.70;;;23.00;65.40;;;;;;6114023;23;92663;-90
2023/08/01 10:41:25;;;;;;;9.85;5.70;;;23.00;65.60;;;;;;6087760;23;94311;-89
2023/08/01 10:43:51;;;;;;;7.75;4.80;;;23.00;65.40;;;;;;6087445;23;92339;-85
2023/08/01 10:46:17;;;;;;;8.25;4.95;;;22.90;65.40;;;;;;6115364;23;92482;-90
2023/08/01 10:48:50;;;;;;;9.65;4.70;;;22.90;65.20;;;;;;6113809;23;93819;-89
2023/08/01 10:51:16;;;;;;;7.72;4.35;;;22.90;65.20;;;;;;6116509;22;93243;-87
2023/08/01 10:53:42;;;;;;;8.93;4.85;;;22.90;64.90;;;;;;6087895;23;92112;-89
2023/08/01 10:56:08;;;;;;;16.77;4.72;;;22.90;64.90;;;;;;6115539;23;92473;-90
2023/08/01 10:58:34;;;;;;;8.63;4.30;;;22.90;64.50;;;;;;6116162;23;92626;-89
2023/08/01 11:01:00;;;;;;;12.00;4.25;;;23.00;64.50;;;;;;6114670;22;92799;-89
2023/08/01 11:03:39;;;;;;;7.45;3.42;;;23.10;63.60;;;;;;6114272;23;92443;-89
2023/08/01 11:06:05;;;;;;;9.50;3.85;;;23.00;63.70;;;;;;6116248;23;91815;-91
2023/08/01 11:08:40;;;;;;;10.00;4.25;;;23.00;63.60;;;;;;6115537;23;93397;-87
2023/08/01 11:11:10;;;;;;;8.43;3.85;;;23.00;63.40;;;;;;6088243;23;95130;-91
2023/08/01 11:13:36;;;;;;;7.63;3.95;;;23.10;63.30;;;;;;6114577;23;93308;-90
2023/08/01 11:16:06;;;;;;;8.57;3.88;;;23.10;63.20;;;;;;6089408;23;92223;-89
2023/08/01 11:18:44;;;;;;;6.80;3.78;;;23.10;63.30;;;;;;6117217;23;93104;-91
2023/08/01 11:21:10;;;;;;;8.77;3.58;;;23.10;63.40;;;;;;6089872;23;100200;-89
2023/08/01 11:23:38;;;;;;;8.60;3.58;;;23.10;63.40;;;;;;6118589;23;92546;-92
2023/08/01 11:26:11;;;;;;;11.23;3.90;;;23.20;63.80;;;;;;6119296;23;91949;-91
2023/08/01 11:28:37;;;;;;;5.97;2.80;;;23.20;63.90;;;;;;6117239;22;94861;-91
2023/08/01 11:31:13;;;;;;;10.18;3.50;;;23.30;63.80;;;;;;6119340;22;92133;-92
2023/08/01 11:33:39;;;;;;;9.27;3.25;;;23.40;63.40;;;;;;6119980;23;92447;-92
2023/08/01 11:36:05;;;;;;;7.28;3.28;;;23.30;63.50;;;;;;6118526;23;92575;-93
2023/08/01 11:38:33;;;;;;;7.82;3.33;;;23.40;63.60;;;;;;6118301;23;93710;-90
2023/08/01 11:41:01;;;;;;;6.38;3.40;;;23.40;63.60;;;;;;6115724;22;94948;-92
2023/08/01 11:43:37;;;;;;;7.13;3.75;;;23.40;63.50;;;;;;6114655;22;93018;-88
2023/08/01 11:46:03;;;;;;;10.35;3.45;;;23.50;63.80;;;;;;6091061;23;92482;-91
2023/08/01 11:48:28;;;;;;;11.48;4.20;;;23.50;63.70;;;;;;6117034;23;92805;-90
2023/08/01 11:51:00;;;;;;;12.77;4.40;;;23.60;63.50;;;;;;6089606;23;95599;-89
2023/08/01 11:53:28;;;;;;;6.40;3.33;;;23.60;63.60;;;;;;6117812;23;92221;-91
2023/08/01 11:55:56;;;;;;;9.15;3.92;;;23.50;63.80;;;;;;6118094;23;91667;-91
2023/08/01 11:58:41;;;;;;;7.70;3.42;;;23.40;63.90;;;;;;6101573;22;92637;-90
2023/08/01 12:01:10;;;;;;;7.00;3.75;;;23.40;64.30;;;;;;6089488;23;95361;-89
2023/08/01 12:04:33;;;;;;;10.40;3.63;;;23.40;64.50;;;;;;6117957;23;93270;-91
2023/08/01 12:07:00;;;;;;;5.03;3.22;;;23.30;64.50;;;;;;6114769;23;92396;-91
2023/08/01 12:09:25;;;;;;;6.45;3.22;;;23.40;63.70;;;;;;6091788;23;95844;-91
2023/08/01 12:11:59;;;;;;;17.23;4.35;;;23.40;63.90;;;;;;6117524;22;92538;-91
2023/08/01 12:14:25;;;;;;;10.63;4.00;;;23.40;63.90;;;;;;6117183;22;92929;-91
2023/08/01 12:16:51;;;;;;;6.45;3.10;;;23.40;64.20;;;;;;6116349;23;92341;-89
2023/08/01 12:19:17;;;;;;;7.07;3.47;;;23.30;63.80;;;;;;6089727;23;95376;-90
2023/08/01 12:21:44;;;;;;;7.78;3.65;;;23.20;64.10;;;;;;6115616;22;92213;-88
2023/08/01 12:24:10;;;;;;;7.53;3.42;;;23.20;63.30;;;;;;6115946;23;92759;-88
2023/08/01 12:26:36;;;;;;;7.80;3.35;;;23.20;63.70;;;;;;6088666;23;92494;-89
2023/08/01 12:29:01;;;;;;;5.63;3.03;;;23.10;63.20;;;;;;6115655;23;94450;-90
2023/08/01 12:31:28;;;;;;;6.07;2.90;;;23.10;63.40;;;;;;6118172;22;93440;-93
2023/08/01 12:33:54;;;;;;;4.55;2.50;;;23.10;62.40;;;;;;6092686;22;92212;-91
2023/08/01 12:36:20;;;;;;;8.40;3.30;;;23.10;63.70;;;;;;6119331;23;92398;-90
2023/08/01 12:38:46;;;;;;;4.65;2.85;;;23.10;63.70;;;;;;6117857;23;92694;-92
2023/08/01 12:41:12;;;;;;;5.18;2.72;;;23.10;64.20;;;;;;6117153;22;92548;-90
2023/08/01 12:43:38;;;;;;;5.03;2.35;;;23.00;63.80;;;;;;6117483;22;92503;-93
2023/08/01 12:46:04;;;;;;;8.40;2.85;;;23.10;63.40;;;;;;6092376;23;91854;-92
2023/08/01 12:48:29;;;;;;;9.35;2.55;;;23.10;62.90;;;;;;6116494;23;95435;-90
2023/08/01 12:50:55;;;;;;;6.43;3.13;;;23.20;62.70;;;;;;6115182;22;92561;-92
2023/08/01 12:53:22;;;;;;;6.35;2.92;;;23.20;62.60;;;;;;6092236;23;93251;-90
2023/08/01 12:55:49;;;;;;;7.15;2.72;;;23.20;62.40;;;;;;6120342;22;92215;-90
2023/08/01 12:58:15;;;;;;;6.90;2.45;;;23.10;62.60;;;;;;6119700;22;95705;-92
2023/08/01 13:00:43;;;;;;;6.55;2.80;;;23.10;62.90;;;;;;6119883;22;92404;-91
2023/08/01 13:06:31;;;;;;;5.35;2.35;;;23.00;62.80;;;;;;6077225;23;91968;-94
2023/08/01 13:09:15;;;;;;;8.57;2.50;;;23.10;61.90;;;;;;6077141;23;95614;-94
2023/08/01 13:11:49;;;;;;;6.53;2.38;;;23.10;61.70;;;;;;6096313;23;95393;-95
2023/08/01 13:14:17;;;;;;;4.53;2.40;;;23.10;61.80;;;;;;6095409;23;92273;-94
2023/08/01 13:16:48;;;;;;;4.68;2.22;;;23.10;61.90;;;;;;6081202;23;94482;-94
2023/08/01 13:19:16;;;;;;;6.25;2.63;;;23.10;62.00;;;;;;6093512;23;95855;-95
2023/08/01 13:21:50;;;;;;;4.97;2.33;;;23.10;62.10;;;;;;6083962;23;96151;-94
2023/08/01 13:24:22;;;;;;;4.55;2.35;;;23.10;62.00;;;;;;6095510;23;92202;-93
2023/08/01 13:26:47;;;;;;;4.03;2.38;;;23.10;62.10;;;;;;6093103;23;92085;-93
2023/08/01 13:30:03;;;;;;;5.47;2.45;;;23.10;62.10;;;;;;6093755;23;94227;-93
2023/08/01 13:42:34;;;;;;;7.90;2.67;;;23.00;61.40;;;;;;5998128;23;98242;-93
2023/08/01 13:45:00;;;;;;;8.38;2.65;;;23.00;61.60;;;;;;6055499;23;94272;-92
2023/08/01 13:47:26;;;;;;;4.63;2.15;;;23.00;61.70;;;;;;6092144;23;93426;-94
2023/08/01 13:49:51;;;;;;;6.10;2.67;;;23.00;61.70;;;;;;6080696;23;92263;-93
2023/08/01 13:52:17;;;;;;;6.10;2.50;;;23.00;61.90;;;;;;6090884;23;95323;-89
2023/08/01 13:54:43;;;;;;;11.90;3.00;;;23.00;61.90;;;;;;6113918;23;92428;-88
2023/08/01 13:57:09;;;;;;;6.60;2.65;;;23.00;61.80;;;;;;6117398;23;92512;-92
2023/08/01 13:59:36;;;;;;;7.57;2.85;;;23.00;62.20;;;;;;6117285;23;92737;-94
2023/08/01 14:02:03;;;;;;;4.68;2.70;;;23.00;62.10;;;;;;6091449;23;95511;-93
2023/08/01 14:04:28;;;;;;;5.03;2.25;;;22.90;62.40;;;;;;6118383;23;91885;-91
2023/08/01 14:06:55;;;;;;;6.32;2.80;;;22.90;63.00;;;;;;6116768;23;92245;-91
2023/08/01 14:09:20;;;;;;;11.73;3.45;;;22.90;62.50;;;;;;6092852;23;92545;-91
2023/08/01 14:11:46;;;;;;;6.15;3.17;;;22.90;62.80;;;;;;6089609;23;96807;-92
2023/08/01 14:14:12;;;;;;;8.25;3.50;;;22.90;62.60;;;;;;6089924;23;96325;-86
2023/08/01 14:16:38;;;;;;;8.00;3.53;;;22.90;62.50;;;;;;6104139;23;92743;-92
2023/08/01 14:19:04;;;;;;;8.48;3.33;;;23.00;62.60;;;;;;6089039;23;92516;-90
2023/08/01 14:21:36;;;;;;;8.90;3.45;;;23.00;62.60;;;;;;6117051;22;92807;-91
2023/08/01 14:24:01;;;;;;;13.02;3.95;;;23.10;62.60;;;;;;6114531;23;94034;-89
2023/08/01 14:26:27;;;;;;;8.85;3.60;;;23.10;62.90;;;;;;6117459;23;93126;-91
2023/08/01 14:28:53;;;;;;;10.70;3.72;;;23.10;63.20;;;;;;6090136;23;91468;-91
2023/08/01 14:31:18;;;;;;;8.45;3.35;;;23.10;63.80;;;;;;6075186;23;95477;-88
2023/08/01 14:33:44;;;;;;;7.75;3.50;;;23.10;64.20;;;;;;6088553;23;95177;-90
2023/08/01 14:36:12;;;;;;;6.80;3.05;;;23.10;64.50;;;;;;6089490;23;93399;-87
2023/08/01 14:38:38;;;;;;;10.40;3.17;;;23.10;64.70;;;;;;6116528;23;92757;-91
2023/08/01 14:41:04;;;;;;;9.18;3.53;;;23.20;64.70;;;;;;6116336;22;93240;-90
2023/08/01 14:43:30;;;;;;;10.82;3.88;;;23.10;64.80;;;;;;6088574;23;95508;-84
2023/08/01 14:45:55;;;;;;;6.47;2.75;;;23.10;64.70;;;;;;6112942;23;93123;-90
2023/08/01 14:48:21;;;;;;;8.60;3.03;;;23.10;64.90;;;;;;6115544;23;92442;-88
2023/08/01 14:50:47;;;;;;;14.13;3.20;;;23.20;64.90;;;;;;6112910;22;92322;-92
2023/08/01 14:53:12;;;;;;;10.07;3.13;;;23.20;64.70;;;;;;6116629;22;94679;-94
2023/08/01 14:55:38;;;;;;;6.18;2.75;;;23.20;64.50;;;;;;6117515;22;92516;-92
2023/08/01 14:58:05;;;;;;;11.07;3.67;;;23.20;64.60;;;;;;6118451;23;92052;-91
2023/08/01 15:00:34;;;;;;;10.20;3.25;;;23.10;64.40;;;;;;6117670;22;93984;-93
2023/08/01 15:02:59;;;;;;;;;;;23.10;64.60;;;;;;6119499;23;93872;-91
2023/08/01 15:05:25;;;;;;;8.13;2.63;;;23.10;64.60;;;;;;6092320;23;91946;-93
2023/08/01 15:07:54;;;;;;;9.85;3.13;;;23.10;64.90;;;;;;6088085;23;92410;-89
2023/08/01 15:10:20;;;;;;;7.65;2.60;;;23.10;65.00;;;;;;6090391;23;95656;-90
2023/08/01 15:13:47;;;;;;;8.00;2.78;;;23.10;63.90;;;;;;6078475;22;95985;-90
2023/08/01 15:16:14;;;;;;;8.80;3.03;;;23.10;64.80;;;;;;5980574;23;91951;-93
2023/08/01 15:18:43;;;;;;;7.97;2.63;;;23.00;65.00;;;;;;5975477;23;91322;-92
2023/08/01 15:21:09;;;;;;;;;;;23.00;65.00;;;;;;5955325;23;99271;-93
2023/08/01 15:23:34;;;;;;;6.90;3.20;;;23.00;65.10;;;;;;5959984;23;94576;-92
2023/08/01 15:26:09;;;;;;;13.15;2.80;;;23.00;65.20;;;;;;6049057;23;93272;-92
2023/08/01 15:28:38;;;;;;;5.13;2.75;;;23.00;65.40;;;;;;6096908;23;92200;-93
2023/08/01 15:31:08;;;;;;;7.47;2.90;;;23.00;65.30;;;;;;6093352;23;95466;-93
2023/08/01 15:33:46;;;;;;;7.65;2.90;;;23.00;65.20;;;;;;6121873;23;95490;-92
2023/08/01 15:36:37;;;;;;;6.70;2.75;;;23.00;65.20;;;;;;6143487;23;91592;-93
2023/08/01 15:39:34;;;;;;;4.88;2.42;;;23.00;65.20;;;;;;6109358;23;92442;-93
2023/08/01 15:42:57;;;;;;;6.15;2.95;;;23.00;65.00;;;;;;6100098;23;95217;-91
2023/08/01 15:45:57;;;;;;;7.88;3.60;;;23.00;65.20;;;;;;6120738;22;96988;-92
2023/08/01 15:48:58;;;;;;;8.90;3.00;;;23.00;65.00;;;;;;6123437;23;91100;-95
2023/08/01 15:51:47;;;;;;;8.63;3.53;;;22.90;64.90;;;;;;6144464;23;91848;-91
2023/08/01 15:54:13;;;;;;;6.63;3.13;;;23.00;64.60;;;;;;6111569;23;99773;-93
2023/08/01 15:56:41;;;;;;;8.13;3.05;;;23.00;64.70;;;;;;6138831;22;96541;-92
2023/08/01 15:59:13;;;;;;;9.70;3.33;;;23.00;64.70;;;;;;6116457;23;91810;-91
2023/08/01 16:01:46;;;;;;;6.88;2.70;;;23.00;64.80;;;;;;6097045;23;91859;-93
2023/08/01 16:04:37;;;;;;;5.60;2.65;;;23.00;64.70;;;;;;6140228;23;93155;-92
2023/08/01 16:07:40;;;;;;;7.60;3.25;;;23.00;64.80;;;;;;6144164;23;91730;-92
2023/08/01 16:10:11;;;;;;;8.02;2.40;;;23.00;64.90;;;;;;6108492;22;92354;-91
2023/08/01 16:12:43;;;;;;;6.47;3.10;;;23.00;64.60;;;;;;6146745;23;91907;-91
2023/08/01 16:15:09;;;;;;;17.27;3.10;;;23.00;64.30;;;;;;6140099;23;95770;-93
2023/08/01 16:17:36;;;;;;;7.25;2.65;;;23.00;64.50;;;;;;6089939;23;93652;-94
2023/08/01 16:20:05;;;;;;;5.32;2.55;;;23.00;64.50;;;;;;6130842;23;92932;-93
2023/08/01 16:23:41;;;;;;;7.45;2.50;;;23.10;64.30;;;;;;6104879;23;91997;-91
2023/08/01 16:26:29;;;;;;;5.60;2.97;;;23.00;64.50;;;;;;6099571;22;93139;-91
2023/08/01 16:28:55;;;;;;;8.32;2.70;;;23.10;64.60;;;;;;6124030;23;93343;-93
2023/08/01 16:32:01;;;;;;;5.25;2.35;;;23.10;64.50;;;;;;6142120;22;91880;-91
2023/08/01 16:35:09;;;;;;;7.68;3.22;;;23.10;64.40;;;;;;6129695;23;91408;-92
2023/08/01 16:37:35;;;;;;;7.03;2.20;;;23.20;64.20;;;;;;6085997;23;92911;-93
2023/08/01 16:40:01;;;;;;;6.28;2.65;;;23.20;62.70;;;;;;6086131;22;95347;-93
2023/08/01 16:42:27;;;;;;;4.40;2.20;;;23.20;62.60;;;;;;6086800;23;92364;-92
2023/08/01 16:44:53;;;;;;;6.35;2.13;;;23.10;62.00;;;;;;6109181;23;92638;-93
2023/08/01 16:47:18;;;;;;;4.55;2.58;;;23.10;62.20;;;;;;6083426;23;96457;-92
2023/08/01 16:49:48;;;;;;;5.85;2.38;;;23.10;61.90;;;;;;6110550;23;93707;-94
2023/08/01 16:52:14;;;;;;;;;;;23.10;62.80;;;;;;6112711;23;92600;-93
2023/08/01 16:54:40;;;;;;;6.78;2.30;;;23.10;62.20;;;;;;6121789;23;92559;-93
2023/08/01 16:57:07;;;;;;;8.25;2.58;;;23.20;62.50;;;;;;6117605;23;97398;-91
2023/08/01 16:59:35;;;;;;;7.65;2.50;;;23.20;62.90;;;;;;6140961;23;92852;-96
2023/08/01 17:02:08;;;;;;;8.45;2.65;;;23.20;63.10;;;;;;6142098;22;91937;-95
2023/08/01 17:04:58;;;;;;;3.97;2.42;;;23.20;63.40;;;;;;6119905;23;91156;-96
2023/08/01 17:07:25;;;;;;;7.32;2.35;;;23.20;63.10;;;;;;6116272;23;95017;-95
2023/08/01 17:09:50;;;;;;;9.88;2.72;;;23.20;63.40;;;;;;6068444;22;95313;-95
2023/08/01 17:12:16;;;;;;;3.35;2.10;;;23.20;63.20;;;;;;6097762;23;93466;-95
2023/08/01 17:14:42;;;;;;;5.82;2.97;;;23.20;63.40;;;;;;6122036;23;92140;-93
2023/08/01 17:17:08;;;;;;;6.30;2.50;;;23.20;63.40;;;;;;6119082;23;93265;-93
2023/08/01 17:19:33;;;;;;;8.05;2.20;;;23.30;63.30;;;;;;6090874;23;96295;-93
2023/08/01 17:22:00;;;;;;;5.97;2.60;;;23.30;63.40;;;;;;6123185;22;92610;-94
2023/08/01 17:24:26;;;;;;;12.05;2.75;;;23.30;63.40;;;;;;6117584;23;92400;-93
2023/08/01 17:26:52;;;;;;;5.85;2.58;;;23.30;63.40;;;;;;6092352;23;95657;-92
2023/08/01 17:29:18;;;;;;;5.55;2.30;;;23.30;63.40;;;;;;6096148;23;95555;-92
2023/08/01 17:31:44;;;;;;;3.65;2.28;;;23.40;63.50;;;;;;6092953;23;92362;-94
2023/08/01 17:34:09;;;;;;;4.53;2.40;;;23.40;63.20;;;;;;6120707;23;92239;-92
2023/08/01 17:36:37;;;;;;;5.20;2.75;;;23.40;63.30;;;;;;6095727;23;96603;-92
2023/08/01 17:39:03;;;;;;;3.47;2.20;;;23.50;63.40;;;;;;6096000;23;94712;-94
2023/08/01 17:41:29;;;;;;;7.93;2.10;;;23.50;63.30;;;;;;6098555;23;92338;-94
2023/08/01 17:43:57;;;;;;;6.40;2.13;;;23.40;63.30;;;;;;6082849;23;92028;-94
2023/08/01 17:46:23;;;;;;;3.35;2.03;;;23.40;63.30;;;;;;6113624;22;95260;-95
2023/08/01 17:48:50;;;;;;;6.10;1.88;;;23.40;63.50;;;;;;6117791;23;92324;-95
2023/08/01 17:51:19;;;;;;;5.93;2.33;;;23.40;63.50;;;;;;6116043;23;91969;-93
2023/08/01 17:53:48;;;;;;;6.22;2.10;;;23.40;63.70;;;;;;6111288;23;91251;-94
2023/08/01 17:56:33;;;;;;;7.57;2.50;;;23.40;63.70;;;;;;6092051;23;94445;-95
2023/08/01 17:59:00;;;;;;;8.27;2.75;;;23.40;63.60;;;;;;6075751;23;95013;-93
2023/08/01 18:01:26;;;;;;;6.60;2.50;;;23.40;63.70;;;;;;6099726;23;93247;-93
2023/08/01 18:03:52;;;;;;;3.90;2.15;;;23.40;64.00;;;;;;6133146;23;92325;-93
2023/08/01 18:06:18;;;;;;;5.32;2.60;;;23.40;64.20;;;;;;6109482;23;92996;-94
2023/08/01 18:08:44;;;;;;;6.20;2.60;;;23.40;64.20;;;;;;6140684;22;95693;-93
2023/08/01 18:11:19;;;;;;;6.55;2.42;;;23.40;64.20;;;;;;6140187;22;92427;-94
2023/08/01 18:14:00;;;;;;;4.47;2.67;;;23.40;64.30;;;;;;6106222;23;91976;-94
2023/08/01 18:16:26;;;;;;;;;;;23.40;64.40;;;;;;6104688;23;95937;-95
2023/08/01 18:18:52;;;;;;;4.45;2.60;;;23.40;64.60;;;;;;6134681;23;91944;-94
2023/08/01 18:21:18;;;;;;;6.60;1.88;;;23.40;64.50;;;;;;6137563;22;92198;-95
2023/08/01 18:23:43;;;;;;;3.85;1.80;;;23.40;64.70;;;;;;6110662;23;92216;-92
2023/08/01 18:26:19;;;;;;;5.10;2.28;;;23.30;64.60;;;;;;6137656;23;93725;-94
2023/08/01 18:28:56;;;;;;;5.18;2.10;;;23.40;63.70;;;;;;6116503;23;94787;-95
2023/08/01 18:31:23;;;;;;;4.20;1.83;;;23.40;63.20;;;;;;6130516;22;91921;-93
2023/08/01 18:34:01;;;;;;;4.15;2.00;;;23.40;63.90;;;;;;6067816;23;91309;-94
2023/08/01 18:36:31;;;;;;;5.25;2.15;;;23.40;64.20;;;;;;6142907;23;92857;-93
2023/08/01 18:39:03;;;;;;;8.32;2.55;;;23.40;64.50;;;;;;6123059;23;92614;-93
2023/08/01 18:42:12;;;;;;;7.03;2.42;;;23.40;64.30;;;;;;6149810;22;91784;-94
2023/08/01 18:44:39;;;;;;;3.72;2.00;;;23.40;64.50;;;;;;6120451;23;90800;-91
2023/08/01 18:47:06;;;;;;;3.83;2.30;;;23.40;64.30;;;;;;6100259;23;95423;-93
2023/08/01 18:49:50;;;;;;;5.53;2.10;;;23.40;64.30;;;;;;6148467;23;91575;-93
2023/08/01 18:52:40;;;;;;;5.85;1.85;;;23.40;64.40;;;;;;6120104;23;92808;-91
2023/08/01 18:55:11;;;;;;;4.35;1.90;;;23.40;64.60;;;;;;6096139;23;92154;-95
2023/08/01 18:58:11;;;;;;;4.07;2.25;;;23.40;64.80;;;;;;6121983;23;94381;-93
2023/08/01 19:00:40;;;;;;;6.45;2.22;;;23.30;65.40;;;;;;6134821;22;98107;-94
2023/08/01 19:03:10;;;;;;;6.55;2.38;;;23.30;64.90;;;;;;6121258;23;90995;-94
2023/08/01 19:05:37;;;;;;;5.53;2.22;;;23.30;65.00;;;;;;6139194;22;92043;-94
2023/08/01 19:08:04;;;;;;;3.40;2.15;;;23.30;65.30;;;;;;6108159;23;92013;-94
2023/08/01 19:10:30;;;;;;;3.28;2.25;;;23.40;64.80;;;;;;6139052;22;91135;-95
2023/08/01 19:12:56;;;;;;;7.07;2.50;;;23.40;64.80;;;;;;6133851;23;92436;-94
2023/08/01 19:15:22;;;;;;;4.80;1.90;;;23.30;65.30;;;;;;6113458;23;92517;-92
2023/08/01 19:17:47;;;;;;;4.45;2.22;;;23.30;65.20;;;;;;6136223;23;94361;-94
2023/08/01 19:20:16;;;;;;;5.60;2.38;;;23.30;65.60;;;;;;6131455;22;97108;-93
2023/08/01 19:22:42;;;;;;;4.78;2.33;;;23.30;65.20;;;;;;6113140;23;93964;-92
2023/08/01 19:25:11;;;;;;;4.38;2.10;;;23.30;65.40;;;;;;6116423;23;92010;-91
2023/08/01 19:27:38;;;;;;;3.90;1.95;;;23.30;65.50;;;;;;6149114;23;91972;-92
2023/08/01 19:30:11;;;;;;;5.50;2.05;;;23.30;65.70;;;;;;6107122;22;92205;-93
2023/08/01 19:32:39;;;;;;;7.18;1.98;;;23.30;65.70;;;;;;6143033;22;92297;-92
2023/08/01 19:35:09;;;;;;;6.15;2.00;;;23.30;65.80;;;;;;6143485;23;91030;-92
2023/08/01 19:37:35;;;;;;;4.68;2.30;;;23.30;65.50;;;;;;6145704;23;92688;-92
2023/08/01 19:40:03;;;;;;;6.38;2.88;;;23.30;65.50;;;;;;6147060;22;92482;-92
2023/08/01 19:42:51;;;;;;;6.43;2.42;;;23.20;65.50;;;;;;6138687;23;92685;-91
2023/08/01 19:45:17;;;;;;;5.88;1.98;;;23.20;65.70;;;;;;6144375;23;91739;-92